Latest Weather Observations for Grove

IDT60901

Issued at 4:21 pm EST Friday 19 April 2019 (issued every 10 minutes, with the page automatically refreshed every 10 minutes)

About weather observations | Map of Hobart area stations | Latest observations for Hobart area | Other Formats
Station Details ID: 094220 Name: GROVE (RESEARCH STATION) Lat: -42.99 Lon: 147.07 Height: 65.0 m
Data from the previous 72 hours. | See also: Recent months at Grove
Date/Time
EST
Temp
°C
App
Temp
°C
Dew
Point
°C
Rel
Hum
%
Delta-T
°C
Wind Press
QNH
hPa
Press
MSL
hPa
Rain since
9am
mm
Dir  Spd
km/h
Gust
km/h
Spd
kts
Gust
kts
19/04:00pm 14.8 10.6 3.7 47 5.1 E 15 22 8 12 - - 0.0
19/03:30pm 15.2 10.8 4.5 49 5.0 E 17 26 9 14 - - 0.0
19/03:00pm 15.1 10.5 3.5 46 5.3 E 17 22 9 12 - - 0.0
19/02:30pm 15.9 12.1 4.1 45 5.5 E 13 19 7 10 - - 0.0
19/02:00pm 15.9 12.0 3.2 42 5.8 E 13 19 7 10 - - 0.0
19/01:30pm 16.1 12.0 4.1 45 5.6 E 15 19 8 10 - - 0.0
19/01:00pm 15.9 12.4 3.5 43 5.7 ENE 11 17 6 9 - - 0.0
19/12:30pm 15.3 12.8 3.8 46 5.3 NNE 6 9 3 5 - - 0.0
19/12:00pm 14.1 12.3 5.2 55 4.2 WSW 4 7 2 4 - - 0.0
19/11:30am 12.0 9.6 4.5 60 3.4 WSW 6 9 3 5 - - 0.0
19/11:00am 10.8 8.7 5.8 71 2.3 SW 6 7 3 4 - - 0.0
19/10:30am 8.8 6.7 6.0 82 1.3 SW 6 9 3 5 - - 0.0
19/10:00am 7.5 5.3 6.2 91 0.6 SW 7 9 4 5 - - 0.0
19/09:30am 7.2 5.8 5.6 89 0.7 SSE 2 6 1 3 - - 0.0
19/09:00am 5.4 3.0 5.2 99 0.1 NNE 7 9 4 5 - - 0.6
19/08:30am 3.8 1.7 3.8 100 0.0 E 4 7 2 4 - - 0.6
19/08:00am 2.5 0.9 2.5 100 0.0 CALM 0 0 0 0 - - 0.6
19/07:30am 0.9 -1.7 0.9 100 0.0 WSW 4 6 2 3 - - 0.6
19/07:00am 0.7 -1.9 0.7 100 0.0 E 4 7 2 4 - - 0.6
19/06:30am 0.7 -2.3 0.7 100 0.0 NE 6 9 3 5 - - 0.6
19/06:00am 0.7 -1.2 0.7 100 0.0 CALM 0 0 0 0 - - 0.6
19/05:30am 1.1 -0.7 1.1 100 0.0 CALM 0 0 0 0 - - 0.6
19/05:00am 1.3 -0.5 1.3 100 0.0 CALM 0 0 0 0 - - 0.6
19/04:30am 1.5 -1.6 1.5 100 0.0 NNE 7 11 4 6 - - 0.6
19/04:00am 1.9 0.2 1.6 98 0.1 CALM 0 0 0 0 - - 0.4
19/03:30am 2.5 0.5 2.5 100 0.0 N 2 6 1 3 - - 0.4
19/03:00am 2.2 -0.6 2.2 100 0.0 NNE 6 7 3 4 - - 0.4
19/02:30am 2.4 -0.5 2.4 100 0.0 NE 7 9 4 5 - - 0.4
19/02:00am 2.9 1.3 2.6 98 0.1 CALM 0 0 0 0 - - 0.4
19/01:30am 3.4 1.2 3.2 99 0.1 N 4 7 2 4 - - 0.4
19/01:00am 4.0 1.5 3.5 97 0.2 E 6 6 3 3 - - 0.4
19/12:30am 4.5 2.1 4.3 99 0.1 N 6 7 3 4 - - 0.4
19/12:00am 4.9 2.6 4.7 99 0.1 ENE 6 7 3 4 - - 0.4
 
Date/Time
EST
Temp
°C
App
Temp
°C
Dew
Point
°C
Rel
Hum
%
Delta-T
°C
Wind Press
QNH
hPa
Press
MSL
hPa
Rain since
9am
mm
Dir  Spd
km/h
Gust
km/h
Spd
kts
Gust
kts
18/11:30pm 5.2 2.7 4.7 97 0.2 NE 7 11 4 6 - - 0.4
18/11:00pm 5.9 4.9 5.7 99 0.1 CALM 0 0 0 0 - - 0.4
18/10:30pm 6.7 5.8 6.0 95 0.3 CALM 0 0 0 0 - - 0.4
18/10:00pm 7.6 6.8 6.5 93 0.5 CALM 0 0 0 0 - - 0.4
18/09:30pm 7.4 5.5 6.5 94 0.4 N 6 7 3 4 - - 0.4
18/09:00pm 7.4 5.3 6.5 94 0.4 ENE 7 9 4 5 - - 0.4
18/08:30pm 6.6 4.3 5.9 95 0.3 N 7 9 4 5 - - 0.4
18/08:00pm 7.1 4.9 6.4 95 0.3 E 7 9 4 5 - - 0.4
18/07:30pm 7.6 6.0 6.3 91 0.6 NE 4 7 2 4 - - 0.4
18/07:00pm 9.2 7.2 6.9 85 1.1 SSE 7 9 4 5 - - 0.4
18/06:30pm 9.5 7.5 6.3 80 1.5 W 6 11 3 6 - - 0.2
18/06:00pm 9.7 8.3 5.5 75 1.9 WSW 2 7 1 4 - - 0.2
18/05:30pm 10.7 9.7 5.5 70 2.4 CALM 0 6 0 3 - - 0.2
18/05:00pm 11.5 8.6 4.9 64 3.0 WSW 9 15 5 8 - - 0.2
18/04:30pm 12.0 7.8 4.0 58 3.6 WSW 15 26 8 14 - - 0.0
18/04:00pm 11.7 6.9 5.7 66 2.8 W 20 37 11 20 - - 0.0
18/03:30pm 13.8 10.4 3.9 51 4.5 SSW 11 20 6 11 - - 0.0
18/03:00pm 14.1 8.5 3.2 48 4.9 WSW 22 44 12 24 - - 0.0
18/02:54pm 14.0 7.1 2.5 46 5.1 WSW 28 46 15 25 - - 0.0
18/02:30pm 13.3 6.5 3.3 50 4.5 WSW 28 41 15 22 - - 0.0
18/02:07pm 13.2 6.3 2.8 49 4.6 WSW 28 46 15 25 - - 0.0
18/02:06pm 13.2 6.3 2.8 49 4.6 WSW 28 46 15 25 - - 0.0
18/02:00pm 14.3 8.3 3.5 48 4.9 WSW 24 35 13 19 - - 0.0
18/01:30pm 14.0 7.8 2.2 45 5.2 WSW 24 39 13 21 - - 0.0
18/01:00pm 14.2 8.1 2.8 46 5.1 WSW 24 41 13 22 - - 0.0
18/12:30pm 14.1 7.7 3.2 48 4.9 SW 26 35 14 19 - - 0.0
18/12:00pm 14.0 8.4 3.4 49 4.8 WSW 22 32 12 17 - - 0.0
18/11:30am 13.6 10.8 5.0 56 4.0 SSW 9 15 5 8 - - 0.0
18/11:00am 12.9 9.5 5.7 61 3.4 SSW 13 22 7 12 - - 0.0
18/10:30am 11.9 9.2 5.4 64 3.0 SSW 9 15 5 8 - - 0.0
18/10:00am 11.6 8.7 4.8 63 3.1 SW 9 15 5 8 - - 0.0
18/09:30am 11.5 8.0 5.5 66 2.8 SSW 13 19 7 10 - - 0.0
18/09:00am 10.7 7.0 4.5 65 2.8 WSW 13 19 7 10 - - 17.4
18/08:30am 9.9 6.3 4.8 70 2.3 WSW 13 20 7 11 - - 17.4
18/08:00am 9.4 6.6 5.0 74 2.0 S 9 19 5 10 - - 17.4
18/07:30am 9.2 6.0 5.0 75 1.9 SW 11 15 6 8 - - 17.4
18/07:00am 9.4 6.6 5.0 74 2.0 S 9 17 5 9 - - 17.4
18/06:30am 9.4 4.9 6.2 80 1.5 W 19 30 10 16 - - 17.4
18/06:00am 9.5 7.5 8.7 95 0.4 SW 9 13 5 7 - - 17.2
18/05:30am 9.3 9.0 8.5 95 0.4 CALM 0 0 0 0 - - 17.2
18/05:00am 9.7 8.8 9.1 96 0.3 NW 4 7 2 4 - - 17.2
18/04:30am 9.9 8.0 9.1 95 0.4 ESE 9 13 5 7 - - 17.2
18/04:00am 10.1 8.6 9.3 95 0.4 ESE 7 9 4 5 - - 17.0
18/03:30am 10.2 8.7 9.2 93 0.5 W 7 13 4 7 - - 16.8
18/03:00am 10.7 9.1 10.3 97 0.2 SW 9 15 5 8 - - 16.4
18/02:30am 11.0 10.0 10.2 95 0.4 ESE 6 13 3 7 - - 16.4
18/02:00am 11.1 10.2 10.5 96 0.3 WSW 6 9 3 5 - - 16.0
18/01:30am 11.2 10.3 10.8 97 0.2 WSW 6 9 3 5 - - 15.2
18/01:00am 11.5 10.5 10.3 92 0.6 SE 6 9 3 5 - - 13.6
18/12:30am 11.8 12.1 11.0 95 0.4 CALM 0 0 0 0 - - 12.0
18/12:00am 12.7 12.8 11.6 93 0.6 S 2 9 1 5 - - 10.2
 
Date/Time
EST
Temp
°C
App
Temp
°C
Dew
Point
°C
Rel
Hum
%
Delta-T
°C
Wind Press
QNH
hPa
Press
MSL
hPa
Rain since
9am
mm
Dir  Spd
km/h
Gust
km/h
Spd
kts
Gust
kts
17/11:30pm 13.4 11.8 11.7 89 0.9 SW 11 20 6 11 - - 9.6
17/11:00pm 14.2 12.9 12.4 89 1.0 SW 11 20 6 11 - - 7.6
17/10:30pm 14.5 13.6 13.6 94 0.5 S 11 19 6 10 - - 6.0
17/10:00pm 16.3 13.3 12.7 79 2.0 WSW 20 28 11 15 - - 0.4
17/09:30pm 19.8 18.1 12.5 62 4.1 N 13 20 7 11 - - 0.2
17/09:00pm 19.6 17.2 12.7 64 3.9 NNE 17 32 9 17 - - 0.2
17/08:30pm 20.6 18.9 12.4 59 4.6 N 13 24 7 13 - - 0.0
17/08:00pm 21.7 19.1 10.8 50 6.0 N 15 32 8 17 - - 0.0
17/07:30pm 21.8 18.3 10.3 48 6.3 N 19 37 10 20 - - 0.0
17/07:00pm 21.5 19.2 10.3 49 6.1 NNE 13 24 7 13 - - 0.0
17/06:30pm 21.8 18.6 10.0 47 6.4 N 17 35 9 19 - - 0.0
17/06:00pm 22.0 20.0 10.3 47 6.4 N 11 28 6 15 - - 0.0
17/05:30pm 22.9 19.7 9.9 43 7.1 N 17 26 9 14 - - 0.0
17/05:00pm 23.5 20.9 9.3 40 7.7 NNW 13 28 7 15 - - 0.0
17/04:30pm 23.5 21.2 9.0 39 7.8 N 11 20 6 11 - - 0.0
17/04:00pm 23.9 19.7 8.4 37 8.3 N 20 32 11 17 - - 0.0
17/03:30pm 24.9 21.7 8.3 34 8.9 NNW 15 28 8 15 - - 0.0
17/03:00pm 25.8 22.7 8.9 34 9.2 N 15 32 8 17 - - 0.0
17/02:30pm 26.5 22.1 7.6 30 10.1 N 20 26 11 14 - - 0.0
17/02:00pm 27.9 23.7 7.4 27 11.0 NNW 19 33 10 18 - - 0.0
17/01:30pm 27.3 22.8 6.1 26 11.1 NNW 19 35 10 19 - - 0.0
17/01:00pm 26.8 21.7 6.1 26 10.8 N 22 44 12 24 - - 0.0
17/12:30pm 27.7 19.9 4.9 23 11.7 N 35 65 19 35 - - 0.0
17/12:00pm 27.3 20.8 4.8 23 11.5 N 28 57 15 31 - - 0.0
17/11:30am 26.3 19.7 4.2 24 11.1 N 28 54 15 29 - - 0.0
17/11:01am 25.7 18.6 3.4 23 11.0 N 30 48 16 26 - - 0.0
17/11:00am 25.9 20.0 4.1 24 10.9 N 24 32 13 17 - - 0.0
17/10:30am 24.4 17.3 3.6 26 10.2 N 30 54 16 29 - - 0.0
17/10:22am 24.5 17.8 3.5 25 10.3 N 28 50 15 27 - - 0.0
17/10:21am 24.5 17.8 3.5 25 10.3 N 28 50 15 27 - - 0.0
17/10:00am 25.1 19.1 3.6 25 10.6 N 24 35 13 19 - - 0.0
17/09:55am 24.7 17.6 3.5 25 10.4 N 30 48 16 26 - - 0.0
17/09:48am 24.3 16.2 3.5 26 10.2 N 35 50 19 27 - - 0.0
17/09:30am 24.4 19.5 4.3 27 10.0 N 19 32 10 17 - - 0.0
17/09:00am 24.1 19.6 4.1 27 9.9 N 17 26 9 14 - - 0.0
17/08:30am 23.2 18.0 5.6 32 8.9 N 22 39 12 21 - - 0.0
17/08:00am 22.2 15.8 5.1 33 8.5 N 28 43 15 23 - - 0.0
17/07:30am 22.0 16.0 5.4 34 8.3 N 26 39 14 21 - - 0.0
17/07:00am 22.1 16.1 5.3 33 8.4 N 26 43 14 23 - - 0.0
17/06:30am 22.2 16.2 5.4 33 8.4 N 26 37 14 20 - - 0.0
17/06:19am 22.1 15.8 5.5 34 8.3 N 28 46 15 25 - - 0.0
17/06:00am 21.7 18.0 6.1 36 7.9 NNW 15 26 8 14 - - 0.0
17/05:30am 22.0 18.0 6.5 36 7.9 NNW 17 33 9 18 - - 0.0
17/05:00am 22.4 19.0 6.0 34 8.3 NNW 13 28 7 15 - - 0.0
17/04:30am 21.9 17.9 6.6 37 7.8 NNW 17 37 9 20 - - 0.0
17/04:00am 21.8 18.5 4.8 33 8.4 NNE 11 28 6 15 - - 0.0
17/03:30am 19.6 16.6 6.2 41 6.7 N 11 22 6 12 - - 0.0
17/03:00am 20.5 17.8 5.6 37 7.4 W 9 19 5 10 - - 0.0
17/02:30am 20.3 18.2 5.9 39 7.2 WSW 6 19 3 10 - - 0.0
17/02:00am 19.1 16.9 6.3 43 6.4 E 7 13 4 7 - - 0.0
17/01:30am 17.3 15.8 8.3 55 4.6 SE 6 9 3 5 - - 0.0
17/01:00am 19.1 17.3 7.8 48 5.8 NE 7 15 4 8 - - 0.0
17/12:30am 20.9 18.3 7.8 42 6.8 N 11 19 6 10 - - 0.0
17/12:00am 21.6 19.3 7.3 39 7.4 NNW 9 19 5 10 - - 0.0
 
Date/Time
EST
Temp
°C
App
Temp
°C
Dew
Point
°C
Rel
Hum
%
Delta-T
°C
Wind Press
QNH
hPa
Press
MSL
hPa
Rain since
9am
mm
Dir  Spd
km/h
Gust
km/h
Spd
kts
Gust
kts
16/11:30pm 21.5 18.8 7.4 40 7.3 NE 11 28 6 15 - - 0.0
16/11:00pm 21.2 19.2 7.2 40 7.2 S 7 17 4 9 - - 0.0
16/10:30pm 22.1 19.9 7.7 39 7.5 NW 9 19 5 10 - - 0.0
16/10:00pm 22.5 20.3 7.8 38 7.7 WNW 9 19 5 10 - - 0.0
16/09:30pm 22.5 19.9 7.8 38 7.7 N 11 19 6 10 - - 0.0
16/09:00pm 21.8 18.6 8.6 42 7.0 NNE 15 26 8 14 - - 0.0
16/08:30pm 21.0 18.7 8.9 46 6.4 NNE 11 24 6 13 - - 0.0
16/08:00pm 18.6 17.4 10.2 58 4.5 W 7 15 4 8 - - 0.0
16/07:30pm 17.7 16.2 10.4 62 3.9 WNW 9 13 5 7 - - 0.0
16/07:00pm 17.9 16.4 10.7 62 3.9 E 9 17 5 9 - - 0.0
16/06:30pm 19.1 18.1 10.4 57 4.7 S 6 11 3 6 - - 0.0
16/06:00pm 19.1 18.1 11.0 59 4.4 W 7 11 4 6 - - 0.0
16/05:30pm 22.8 21.1 10.0 44 7.0 ENE 9 13 5 7 - - 0.0
16/05:00pm 25.1 22.0 8.9 35 8.8 NE 15 20 8 11 - - 0.0
16/04:30pm 25.8 23.2 9.4 35 9.0 NE 13 19 7 10 - - 0.0

Latest Capital City Observations: Canberra | Sydney | Melbourne | Brisbane | Adelaide | Perth | Hobart | Darwin

Other formats

Comma delimited format used in spreadsheet applications
http://www.bom.gov.au/fwo/IDT60901/IDT60901.95977.axf

JavaScript Object Notation format (JSON) in row-major order
http://www.bom.gov.au/fwo/IDT60901/IDT60901.95977.json

Data quality

Most of these data are generated automatically and are frequently updated. Quality checks on data are not normally performed. It is possible for incorrect values to appear. Refer to information at About Latest Weather Observations and please check the disclaimer before using these data.